createdAt,value
2022-12-14T19:41:37.997Z,94576.00
2022-12-14T19:44:06.303Z,94587.38
2022-12-14T19:46:34.537Z,94586.38
2022-12-14T19:49:03.439Z,94586.34
2022-12-14T19:51:31.407Z,94592.00
2022-12-14T19:54:01.383Z,94591.47
2022-12-14T19:56:29.496Z,94593.03
2022-12-14T19:59:00.907Z,94598.78
2022-12-14T20:01:32.723Z,94607.09
2022-12-14T20:04:36.039Z,94618.28
2022-12-14T20:07:04.133Z,94630.97
2022-12-14T20:09:32.174Z,94616.41
2022-12-14T20:12:00.199Z,94615.91
2022-12-14T20:14:29.691Z,94613.06
2022-12-14T20:16:57.812Z,94608.41
2022-12-14T20:19:26.167Z,94611.56
2022-12-14T20:21:55.541Z,94617.28
2022-12-14T20:24:23.608Z,94623.53
2022-12-14T20:26:51.707Z,94618.66
2022-12-14T20:29:19.755Z,94625.41
2022-12-14T20:31:49.369Z,94625.66
2022-12-14T20:34:17.589Z,94635.25
2022-12-14T20:36:45.664Z,94627.69
2022-12-14T20:39:13.846Z,94627.94
2022-12-14T20:41:42.066Z,94634.94
2022-12-14T20:44:11.979Z,94637.75
2022-12-14T20:46:42.400Z,94638.03
2022-12-14T20:49:14.480Z,94640.88
2022-12-14T20:51:43.367Z,94647.63
2022-12-14T20:54:14.622Z,94649.66
2022-12-14T20:56:42.905Z,94652.44
2022-12-14T20:59:12.388Z,94655.78
2022-12-14T21:01:42.637Z,94652.69
2022-12-14T21:04:12.486Z,94644.44
2022-12-14T21:06:43.511Z,94649.16
2022-12-14T21:09:12.824Z,94639.28
2022-12-14T21:12:00.351Z,94647.03
2022-12-14T21:14:31.142Z,94661.06
2022-12-14T21:17:00.397Z,94663.16
2022-12-14T21:19:30.068Z,94658.53
2022-12-14T21:21:58.242Z,94668.38
2022-12-14T21:27:19.405Z,94664.22
2022-12-14T21:29:47.960Z,94657.00
2022-12-14T21:32:16.769Z,94665.34
2022-12-14T21:34:46.689Z,94667.94
2022-12-14T21:37:15.441Z,94664.06
2022-12-14T21:39:51.841Z,94674.69
2022-12-14T21:42:20.728Z,94677.81
2022-12-14T21:44:50.824Z,94674.19
2022-12-14T21:47:21.213Z,94667.69
2022-12-14T21:49:50.693Z,94659.94
2022-12-14T21:52:20.446Z,94672.66
2022-12-14T21:54:48.600Z,94677.63
2022-12-14T21:57:36.105Z,94678.38
2022-12-14T22:00:05.163Z,94684.59
2022-12-14T22:02:33.663Z,94673.44
2022-12-14T22:05:03.376Z,94681.50
2022-12-14T22:07:33.516Z,94681.50
2022-12-14T22:10:02.049Z,94677.84
2022-12-14T22:12:30.036Z,94681.50
2022-12-14T22:14:58.180Z,94678.38
2022-12-14T22:17:26.430Z,94675.28
2022-12-14T22:19:55.373Z,94669.59
2022-12-14T22:22:25.076Z,94672.75
2022-12-14T22:24:53.099Z,94674.06
2022-12-14T22:27:21.516Z,94674.84
2022-12-14T22:29:49.667Z,94678.47
2022-12-14T22:32:17.830Z,94677.66
2022-12-14T22:34:46.170Z,94687.22
2022-12-14T22:37:15.370Z,94686.16
2022-12-14T22:39:48.055Z,94686.16
2022-12-14T22:42:16.924Z,94692.88
2022-12-14T22:44:45.256Z,94696.53
2022-12-14T22:47:13.390Z,94693.94
2022-12-14T22:49:41.484Z,94703.81
2022-12-14T22:52:09.545Z,94698.63
2022-12-14T22:54:39.403Z,94696.53
2022-12-14T22:57:11.467Z,94691.88
2022-12-14T22:59:45.321Z,94692.94
2022-12-14T23:02:13.535Z,94691.44
2022-12-14T23:04:41.949Z,94685.72
2022-12-14T23:07:10.030Z,94683.66
2022-12-14T23:09:55.820Z,94693.25
2022-12-14T23:12:42.672Z,94691.94
2022-12-14T23:15:28.656Z,94699.97
2022-12-14T23:18:14.152Z,94691.19
2022-12-14T23:20:59.613Z,94683.66
2022-12-14T23:23:45.178Z,94685.47
2022-12-14T23:26:30.748Z,94678.22
2022-12-14T23:29:17.567Z,94685.72
2022-12-14T23:32:03.114Z,94680.53
2022-12-14T23:34:48.477Z,94680.28
2022-12-14T23:37:34.188Z,94679.50
2022-12-14T23:40:19.659Z,94692.44
2022-12-14T23:43:05.140Z,94695.56
2022-12-14T23:45:52.133Z,94695.78
2022-12-14T23:48:37.604Z,94699.38
2022-12-14T23:51:23.709Z,94705.84
2022-12-14T23:54:09.278Z,94711.78
2022-12-14T23:56:55.346Z,94706.31
2022-12-14T23:59:41.163Z,94722.66
